Time;durP1;ratioP1;P1;durP2;ratioP2;P2;SDS_P1;SDS_P2;PMS_P1;PMS_P2;Temp;Humidity;BMP_temperature;BMP_pressure;BME280_temperature;BME280_humidity;BME280_pressure;Samples;Min_cycle;Max_cycle;Signal;HPM_P1;HPM_P2
2021/10/28 00:12:12;;;;;;;42.83;26.50;;;;;;;5.90;92.16;143710.59;1853473;77;22136;-60
2021/10/28 00:13:54;;;;;;;38.33;24.47;;;;;;;5.87;92.32;143705.59;1853576;77;22124;-59
2021/10/28 00:16:31;;;;;;;37.90;25.70;;;;;;;5.83;92.27;143695.63;1834930;77;22531;-58
2021/10/28 00:19:08;;;;;;;43.48;25.20;;;;;;;5.79;92.45;143685.63;1834851;77;22140;-60
2021/10/28 00:21:44;;;;;;;43.95;25.35;;;;;;;5.79;92.52;143684.38;1843375;77;22172;-59
2021/10/28 00:24:19;;;;;;;39.75;26.25;;;;;;;5.77;92.51;143680.61;1853533;77;22131;-58
2021/10/28 00:26:55;;;;;;;40.03;27.20;;;;;;;5.77;92.48;143680.61;1819205;77;28396;-57
2021/10/28 00:29:30;;;;;;;42.95;26.10;;;;;;;5.80;92.51;143686.86;1835029;77;22133;-55
2021/10/28 00:32:07;;;;;;;40.92;25.55;;;;;;;5.75;92.56;143675.66;1815890;79;22634;-56
2021/10/28 00:34:42;;;;;;;40.35;26.50;;;;;;;5.75;92.59;143675.66;1853497;77;22131;-59
2021/10/28 00:37:19;;;;;;;39.80;26.15;;;;;;;5.79;92.64;143685.63;1834746;77;22554;-58
2021/10/28 00:39:53;;;;;;;48.25;28.73;;;;;;;5.79;92.56;143685.63;1834929;77;22165;-57
2021/10/28 00:42:29;;;;;;;40.30;28.35;;;;;;;5.77;92.49;143680.61;1837777;77;38291;-57
2021/10/28 00:45:07;;;;;;;38.30;27.35;;;;;;;5.81;92.47;143689.37;1819388;77;27982;-58
2021/10/28 00:48:01;;;;;;;41.30;26.68;;;;;;;5.88;92.34;143708.13;1853510;77;22152;-58
2021/10/28 00:50:38;;;;;;;44.80;28.65;;;;;;;5.84;92.30;143696.88;1879354;76;22108;-56
2021/10/28 00:53:14;;;;;;;43.17;27.98;;;;;;;5.83;92.30;143694.39;1834770;77;22574;-57
2021/10/28 00:56:10;;;;;;;45.50;27.77;;;;;;;5.79;92.19;143685.63;1834948;77;22177;-60
2021/10/28 00:58:46;;;;;;;43.90;27.52;;;;;;;5.73;92.22;143670.66;1853531;77;22394;-56
2021/10/28 01:01:21;;;;;;;46.83;27.65;;;;;;;5.71;92.30;143665.64;1853550;77;22171;-58
2021/10/28 01:04:17;;;;;;;48.70;29.02;;;;;;;5.68;92.37;143658.16;1853471;77;22180;-57
2021/10/28 01:07:11;;;;;;;43.05;29.12;;;;;;;5.67;92.43;143655.63;1853489;77;22147;-57
2021/10/28 01:09:46;;;;;;;49.58;28.10;;;;;;;5.64;92.46;143648.14;1834936;77;22156;-55
2021/10/28 01:12:27;;;;;;;46.50;29.50;;;;;;;5.64;92.56;143648.14;1834108;77;22582;-57
2021/10/28 01:15:12;;;;;;;48.40;28.05;;;;;;;5.63;92.60;143645.66;1835029;77;22132;-56
2021/10/28 01:17:47;;;;;;;50.15;28.42;;;;;;;5.61;92.64;143640.66;1834961;77;22207;-56
2021/10/28 01:20:45;;;;;;;40.65;27.82;;;;;;;5.63;92.69;143645.66;1853426;77;22159;-57
2021/10/28 01:23:41;;;;;;;46.75;28.52;;;;;;;5.64;92.66;143649.38;1834863;77;22570;-58
2021/10/28 01:26:18;;;;;;;45.83;28.67;;;;;;;5.64;92.68;143649.38;1834946;77;22132;-57
2021/10/28 01:29:00;;;;;;;47.93;28.87;;;;;;;5.61;92.67;143641.91;1834897;77;22566;-58
2021/10/28 01:31:55;;;;;;;51.68;30.70;;;;;;;5.60;92.76;143638.19;1853515;77;22147;-56
2021/10/28 01:34:49;;;;;;;49.15;31.27;;;;;;;5.59;92.86;143635.66;1834887;77;22247;-57
2021/10/28 01:37:24;;;;;;;46.77;31.42;;;;;;;5.58;92.83;143633.17;1834939;77;22156;-57
2021/10/28 01:39:59;;;;;;;55.40;31.85;;;;;;;5.58;92.85;143633.17;1834961;77;22128;-56
2021/10/28 01:42:34;;;;;;;45.63;31.30;;;;;;;5.55;92.84;143625.69;1819237;77;28472;-59
2021/10/28 01:45:09;;;;;;;49.18;30.72;;;;;;;5.58;92.93;143634.42;1834940;77;22160;-56
2021/10/28 01:47:44;;;;;;;47.60;32.15;;;;;;;5.57;93.02;143630.66;1834965;77;22153;-59
2021/10/28 01:50:21;;;;;;;44.25;31.07;;;;;;;5.57;93.10;143630.66;1834709;77;22268;-58
2021/10/28 01:52:57;;;;;;;52.50;34.95;;;;;;;5.54;93.06;143623.16;1819351;77;28022;-57
2021/10/28 01:55:32;;;;;;;53.63;31.35;;;;;;;5.59;93.09;143636.89;1853510;77;20210;-57
2021/10/28 01:58:08;;;;;;;56.42;31.95;;;;;;;5.59;93.06;143636.89;1834934;77;22157;-60
2021/10/28 02:00:44;;;;;;;52.08;33.70;;;;;;;5.58;93.05;143633.17;1835052;77;22554;-57
2021/10/28 02:03:19;;;;;;;50.60;33.40;;;;;;;5.57;93.12;143630.66;1853528;77;20202;-55
2021/10/28 02:06:13;;;;;;;51.30;32.63;;;;;;;5.55;93.16;143625.69;1853477;77;22558;-58
2021/10/28 02:08:48;;;;;;;57.05;33.53;;;;;;;5.53;93.12;143621.92;1853492;77;22156;-57
2021/10/28 02:11:23;;;;;;;57.05;34.10;;;;;;;5.51;93.14;143616.92;1834891;77;22269;-59
2021/10/28 02:13:58;;;;;;;58.13;35.08;;;;;;;5.48;93.21;143608.19;1853519;77;22136;-58
2021/10/28 02:16:35;;;;;;;56.33;34.18;;;;;;;5.45;93.25;143601.95;1834931;77;22226;-56
2021/10/28 02:19:10;;;;;;;48.08;33.88;;;;;;;5.44;93.26;143599.42;1834955;77;22148;-58
2021/10/28 02:21:45;;;;;;;54.45;33.80;;;;;;;5.43;93.42;143598.19;1853496;77;22127;-56
2021/10/28 02:24:20;;;;;;;50.70;32.78;;;;;;;5.39;93.39;143586.94;1853509;77;22128;-59
2021/10/28 02:26:55;;;;;;;51.70;32.30;;;;;;;5.35;93.42;143578.22;1853608;77;22238;-57
2021/10/28 02:29:30;;;;;;;54.33;32.83;;;;;;;5.34;93.51;143574.45;1835061;77;22587;-56
2021/10/28 02:32:06;;;;;;;50.03;33.10;;;;;;;5.35;93.69;143578.22;1853478;77;22578;-59
2021/10/28 02:34:42;;;;;;;55.23;34.25;;;;;;;5.35;93.81;143578.22;1835025;77;22144;-56
2021/10/28 02:37:36;;;;;;;51.98;34.63;;;;;;;5.35;93.82;143578.22;1834888;77;22133;-59
2021/10/28 02:40:13;;;;;;;58.52;33.40;;;;;;;5.35;93.91;143578.22;1834931;77;22172;-59
2021/10/28 02:42:48;;;;;;;50.67;33.78;;;;;;;5.35;93.99;143576.97;1853493;77;22159;-58
2021/10/28 02:45:23;;;;;;;48.55;33.05;;;;;;;5.36;94.15;143579.45;1853501;77;22128;-57
2021/10/28 02:47:59;;;;;;;53.35;35.40;;;;;;;5.37;94.11;143581.98;1819299;77;38656;-57
2021/10/28 02:50:33;;;;;;;56.77;34.92;;;;;;;5.43;94.09;143598.19;1834959;77;22156;-56
2021/10/28 02:53:09;;;;;;;59.33;34.38;;;;;;;5.44;94.07;143599.42;1853475;77;22130;-59
2021/10/28 02:55:45;;;;;;;53.50;37.08;;;;;;;5.43;94.09;143596.95;1819335;77;27993;-57
2021/10/28 02:58:20;;;;;;;52.55;35.23;;;;;;;5.50;94.08;143613.20;1819433;77;28028;-60
2021/10/28 03:00:55;;;;;;;55.05;32.73;;;;;;;5.58;93.90;143633.17;1834954;77;22156;-59
2021/10/28 03:03:30;;;;;;;56.55;34.63;;;;;;;5.54;93.84;143624.41;1835050;77;22205;-56
2021/10/28 03:06:06;;;;;;;58.78;35.92;;;;;;;5.53;93.96;143620.69;1843414;77;22152;-56
2021/10/28 03:08:41;;;;;;;56.55;37.17;;;;;;;5.57;93.99;143630.66;1834955;77;20452;-57
2021/10/28 03:11:17;;;;;;;57.00;36.95;;;;;;;5.58;93.82;143633.17;1834905;77;22153;-58
2021/10/28 03:13:53;;;;;;;56.25;37.50;;;;;;;5.55;93.75;143625.69;1819369;77;27973;-56
2021/10/28 03:19:58;;;;;;;54.15;36.90;;;;;;;5.66;93.61;143653.16;1834929;77;22149;-57
2021/10/28 03:25:37;;;;;;;60.73;37.08;;;;;;;5.62;93.41;143644.42;1834930;77;22998;-56
2021/10/28 03:28:18;;;;;;;57.55;35.43;;;;;;;5.60;93.31;143638.19;1853497;77;22566;-57
2021/10/28 03:30:53;;;;;;;57.17;39.08;;;;;;;5.59;93.42;143636.89;1834927;77;22129;-55
2021/10/28 03:33:50;;;;;;;57.58;36.53;;;;;;;5.60;93.44;143638.19;1834854;77;22160;-56
2021/10/28 03:50:25;;;;;;;59.18;35.58;;;;;;;5.83;93.10;143695.63;1834883;77;22198;-56
2021/10/28 04:18:47;;;;;;;55.92;35.45;;;;;;;6.11;91.97;143763.16;1834868;77;22199;-55
2021/10/28 04:30:03;;;;;;;57.25;34.45;;;;;;;6.24;91.61;143795.64;1834971;77;22121;-55
2021/10/28 04:32:58;;;;;;;51.45;33.00;;;;;;;6.29;91.42;143806.89;1853442;77;22609;-59
2021/10/28 04:35:33;;;;;;;53.68;35.25;;;;;;;6.30;91.34;143810.63;1853494;77;22151;-60
2021/10/28 04:38:09;;;;;;;57.48;35.25;;;;;;;6.33;91.27;143815.62;1835015;77;22160;-54
2021/10/28 04:40:45;;;;;;;53.80;35.55;;;;;;;6.35;91.15;143820.64;1843324;78;22574;-58
2021/10/28 04:43:21;;;;;;;57.70;36.75;;;;;;;6.38;91.10;143828.13;1853468;77;22123;-60
2021/10/28 04:45:56;;;;;;;57.08;37.40;;;;;;;6.39;91.03;143830.66;1834933;77;22133;-56
2021/10/28 04:48:31;;;;;;;53.28;37.10;;;;;;;6.42;90.95;143838.14;1819335;77;28023;-58
2021/10/28 04:51:06;;;;;;;56.63;35.65;;;;;;;6.49;90.86;143856.89;1834936;77;22145;-56
2021/10/28 04:53:41;;;;;;;55.90;34.13;;;;;;;6.55;90.72;143869.39;1834924;77;22157;-59
2021/10/28 04:56:35;;;;;;;56.18;34.40;;;;;;;6.53;90.65;143865.63;1834753;77;22136;-59
2021/10/28 04:59:10;;;;;;;56.45;36.17;;;;;;;6.55;90.67;143869.39;1800716;79;22148;-57
2021/10/28 05:01:45;;;;;;;51.60;36.63;;;;;;;6.56;90.61;143873.11;1837744;77;27999;-55
2021/10/28 05:04:20;;;;;;;54.15;34.10;;;;;;;6.61;90.51;143884.38;1834977;77;22132;-57
2021/10/28 05:06:55;;;;;;;56.63;36.98;;;;;;;6.59;90.42;143879.36;1834890;77;22132;-56
2021/10/28 05:09:32;;;;;;;55.65;36.70;;;;;;;6.59;90.57;143880.66;1853474;77;22634;-56
2021/10/28 05:12:09;;;;;;;58.15;35.78;;;;;;;6.63;90.54;143890.63;1834855;77;22148;-56
2021/10/28 05:15:04;;;;;;;61.20;37.42;;;;;;;6.65;90.47;143895.63;1834856;77;22128;-59
2021/10/28 05:17:39;;;;;;;62.17;37.98;;;;;;;6.67;90.38;143900.64;1853348;77;22167;-56
2021/10/28 05:20:15;;;;;;;59.55;38.25;;;;;;;6.69;90.36;143904.38;1834856;77;22156;-58
2021/10/28 05:22:49;;;;;;;62.20;38.10;;;;;;;6.71;90.35;143910.62;1821148;77;22175;-56
2021/10/28 05:25:44;;;;;;;60.90;38.83;;;;;;;6.70;90.29;143908.12;1819995;77;22193;-59
2021/10/28 05:28:19;;;;;;;58.87;40.38;;;;;;;6.71;90.32;143910.62;1800991;77;28585;-55
2021/10/28 05:30:54;;;;;;;58.68;37.83;;;;;;;6.77;90.27;143924.41;1814816;77;22164;-57
2021/10/28 05:33:49;;;;;;;61.02;38.08;;;;;;;6.81;90.26;143933.14;1814775;77;22202;-57
2021/10/28 05:36:26;;;;;;;60.23;39.40;;;;;;;6.82;90.27;143935.63;1802234;77;28069;-56
2021/10/28 05:39:20;;;;;;;58.48;37.25;;;;;;;6.90;90.19;143956.91;1823851;77;22172;-59
2021/10/28 05:42:15;;;;;;;60.92;39.65;;;;;;;6.92;90.18;143961.92;1930590;74;22597;-62
2021/10/28 05:44:52;;;;;;;63.35;37.25;;;;;;;6.93;90.15;143964.41;1848130;77;22154;-60
2021/10/28 05:47:48;;;;;;;58.35;36.15;;;;;;;6.93;90.15;143963.16;1834800;77;22168;-59
2021/10/28 05:50:43;;;;;;;54.85;36.55;;;;;;;6.96;90.25;143970.66;1853356;77;22156;-56
2021/10/28 05:53:19;;;;;;;58.63;36.55;;;;;;;7.00;90.26;143980.67;1853474;77;22582;-59
2021/10/28 05:55:57;;;;;;;56.15;35.92;;;;;;;7.05;90.23;143993.19;1834955;77;22136;-55
2021/10/28 05:58:31;;;;;;;50.45;34.78;;;;;;;7.09;90.19;144003.16;1853454;77;22248;-57
2021/10/28 06:01:07;;;;;;;55.60;35.63;;;;;;;7.11;90.14;144008.17;1834959;77;22128;-58
2021/10/28 06:04:00;;;;;;;53.05;35.08;;;;;;;7.14;90.27;144015.66;1834860;77;22224;-58
2021/10/28 06:06:35;;;;;;;53.33;36.25;;;;;;;7.20;90.21;144028.17;1834893;77;22136;-58
2021/10/28 06:09:10;;;;;;;56.40;36.45;;;;;;;7.21;90.16;144030.70;1834837;77;22128;-56
2021/10/28 06:11:48;;;;;;;55.40;36.25;;;;;;;7.23;90.27;144036.95;1834721;77;22570;-56
2021/10/28 06:14:25;;;;;;;54.20;35.40;;;;;;;7.30;90.22;144054.47;1835027;77;20353;-60
2021/10/28 06:19:42;;;;;;;58.10;35.17;;;;;;;7.46;90.11;144093.23;1833991;77;22209;-55
2021/10/28 06:22:18;;;;;;;60.43;35.95;;;;;;;7.54;89.96;144113.25;1853539;77;22155;-60
2021/10/28 06:25:12;;;;;;;54.95;35.45;;;;;;;7.63;89.87;144134.50;1834942;77;22132;-60
2021/10/28 06:28:06;;;;;;;51.42;33.53;;;;;;;7.74;89.75;144160.81;1834868;77;22638;-60
2021/10/28 06:31:01;;;;;;;54.88;34.58;;;;;;;7.86;89.43;144190.86;1834871;77;22156;-58
2021/10/28 06:33:38;;;;;;;53.87;39.23;;;;;;;7.94;89.19;144210.87;1819309;77;27997;-58
2021/10/28 06:36:18;;;;;;;54.88;35.35;;;;;;;8.08;88.93;144244.64;1834913;77;22156;-56
2021/10/28 06:39:17;;;;;;;54.83;35.05;;;;;;;8.17;88.48;144265.95;1853193;77;22195;-59
2021/10/28 06:41:52;;;;;;;62.67;35.68;;;;;;;8.22;88.21;144278.47;1853257;77;22160;-58
2021/10/28 06:44:48;;;;;;;60.23;38.08;;;;;;;8.27;87.93;144290.98;1834750;77;22644;-58
2021/10/28 06:47:41;;;;;;;60.58;37.73;;;;;;;8.30;87.74;144298.48;1852703;77;22685;-58
2021/10/28 06:50:19;;;;;;;60.90;38.50;;;;;;;8.32;87.61;144302.22;1834696;77;22575;-56
2021/10/28 07:04:24;;;;;;;53.40;34.55;;;;;;;8.46;87.11;144337.34;1834946;77;22152;-60
2021/10/28 07:07:18;;;;;;;54.50;35.88;;;;;;;8.52;87.06;144351.09;1834817;77;22634;-60
2021/10/28 07:10:14;;;;;;;53.90;38.38;;;;;;;8.59;86.89;144368.64;1819358;77;28031;-60
2021/10/28 07:13:04;;;;;;;55.58;34.80;;;;;;;8.69;86.76;144394.92;1853493;77;22155;-59
2021/10/28 07:16:25;;;;;;;51.23;32.63;;;;;;;8.82;86.46;144425.00;1831882;77;22226;-59
2021/10/28 07:19:14;;;;;;;46.30;32.13;;;;;;;8.89;86.21;144442.53;1834943;77;22132;-60
2021/10/28 07:30:37;;;;;;;53.30;32.90;;;;;;;9.12;85.25;144498.91;1853483;77;22136;-58
2021/10/28 07:33:14;;;;;;;51.73;32.75;;;;;;;9.14;85.20;144503.92;1834852;77;22149;-57
2021/10/28 07:36:23;;;;;;;55.15;35.43;;;;;;;9.19;85.13;144516.45;1853551;77;22245;-59
2021/10/28 07:57:10;;;;;;;56.35;35.43;;;;;;;9.62;84.16;144621.70;1834943;77;22128;-57
2021/10/28 08:17:37;;;;;;;53.00;33.28;;;;;;;10.43;82.10;144819.80;1834680;77;22618;-59
2021/10/28 08:22:59;;;;;;;46.48;30.77;;;;;;;10.74;81.38;144895.09;1850770;77;22211;-61
2021/10/28 08:31:21;;;;;;;55.95;31.23;;;;;;;11.12;79.89;144987.91;1834001;77;22167;-61
2021/10/28 08:34:03;;;;;;;44.77;30.00;;;;;;;11.22;79.58;145014.28;1834044;77;22188;-59
2021/10/28 08:37:10;;;;;;;46.02;28.27;;;;;;;11.39;79.08;145055.67;1853217;77;22572;-57
2021/10/28 08:39:48;;;;;;;46.65;28.38;;;;;;;11.58;78.66;145100.89;1834882;77;22208;-60
2021/10/28 08:42:23;;;;;;;40.20;25.80;;;;;;;11.86;78.11;145169.94;1830032;77;22175;-58
2021/10/28 08:44:59;;;;;;;38.30;26.97;;;;;;;12.17;77.32;145246.56;1802334;77;28032;-59
2021/10/28 08:47:56;;;;;;;35.10;23.55;;;;;;;12.52;76.21;145332.00;1825881;77;22621;-60
2021/10/28 09:25:52;;;;;;;28.25;18.48;;;;;;;13.09;71.59;145471.44;1834324;77;22665;-59
2021/10/28 09:28:33;;;;;;;27.40;18.12;;;;;;;12.98;71.91;145445.06;1853175;77;22234;-61
2021/10/28 09:31:32;;;;;;;23.55;17.48;;;;;;;12.93;72.18;145432.50;1834882;77;22153;-59
2021/10/28 09:34:36;;;;;;;30.72;19.05;;;;;;;13.01;72.22;145452.59;1834831;77;22582;-59
2021/10/28 09:52:29;;;;;;;30.30;17.92;;;;;;;13.50;70.17;145573.28;1834716;77;22167;-61
2021/10/28 09:58:27;;;;;;;26.85;17.55;;;;;;;13.41;70.51;145551.94;1834884;77;22156;-58
2021/10/28 10:01:02;;;;;;;27.10;18.57;;;;;;;13.50;70.50;145573.28;1853449;77;22543;-61
2021/10/28 10:04:00;;;;;;;28.42;18.65;;;;;;;13.56;70.20;145587.11;1834996;77;22140;-59
2021/10/28 10:06:40;;;;;;;27.40;18.05;;;;;;;13.50;70.30;145572.03;1853455;77;22124;-61
2021/10/28 10:09:38;;;;;;;25.75;17.82;;;;;;;13.56;70.21;145588.41;1834720;77;22160;-61
2021/10/28 10:12:32;;;;;;;27.98;17.85;;;;;;;13.71;70.00;145623.58;1853398;77;22131;-57
2021/10/28 10:15:09;;;;;;;27.90;19.80;;;;;;;13.74;69.65;145631.11;1819353;77;28007;-57
2021/10/28 10:17:57;;;;;;;29.75;18.55;;;;;;;13.70;69.49;145622.33;1834981;77;22125;-60
2021/10/28 10:20:51;;;;;;;26.77;18.17;;;;;;;13.63;69.63;145604.72;1835006;77;22124;-59
2021/10/28 11:02:59;;;;;;;29.48;19.17;;;;;;;13.83;69.54;145653.77;1834990;77;22546;-58
2021/10/28 12:17:25;;;;;;;24.32;13.40;;;;;;;14.31;68.20;145771.98;1834868;77;22580;-58
2021/10/28 12:23:25;;;;;;;20.88;12.93;;;;;;;14.25;68.67;145756.91;1835063;77;22128;-57
2021/10/28 12:43:59;;;;;;;22.17;12.43;;;;;;;14.17;69.79;145736.75;1834892;77;22586;-62
2021/10/28 13:04:09;;;;;;;20.82;10.75;;;;;;;14.33;69.79;145777.03;1843365;78;22163;-57
2021/10/28 13:28:12;;;;;;;17.42;11.63;;;;;;;14.20;70.45;145744.33;1853538;77;22124;-60
2021/10/28 14:00:58;;;;;;;20.57;11.60;;;;;;;14.10;71.77;145721.67;1835111;77;22128;-56
2021/10/28 14:27:27;;;;;;;18.95;11.35;;;;;;;13.95;72.92;145683.94;1853618;77;22127;-58
2021/10/28 14:33:39;;;;;;;18.45;12.40;;;;;;;13.96;73.11;145685.19;1834834;77;22147;-61
2021/10/28 15:28:44;;;;;;;19.98;11.40;;;;;;;13.70;76.30;145622.33;1834889;77;22124;-56
2021/10/28 15:37:02;;;;;;;18.15;10.70;;;;;;;13.62;76.93;145603.47;1834918;77;22124;-56
2021/10/28 15:43:02;;;;;;;16.60;11.12;;;;;;;13.65;77.17;145611.00;1834867;77;22610;-58
2021/10/28 16:24:05;;;;;;;22.50;14.98;;;;;;;13.53;78.78;145579.56;1821667;77;28098;-59
2021/10/28 16:27:02;;;;;;;21.17;14.68;;;;;;;13.57;78.77;145590.89;1816776;78;22599;-58
2021/10/28 16:29:56;;;;;;;21.55;14.20;;;;;;;13.56;78.77;145588.41;1814700;77;22180;-55
2021/10/28 16:32:31;;;;;;;21.17;13.65;;;;;;;13.55;78.77;145585.86;1827260;77;22152;-56
2021/10/28 16:35:07;;;;;;;19.20;14.18;;;;;;;13.55;78.84;145585.86;1813408;77;38488;-57
2021/10/28 16:37:42;;;;;;;22.42;15.08;;;;;;;13.61;78.84;145600.97;1837112;77;28445;-57
2021/10/28 16:40:18;;;;;;;21.48;14.23;;;;;;;13.69;78.67;145619.83;1813211;77;22171;-60
2021/10/28 16:42:53;;;;;;;23.02;14.35;;;;;;;13.66;78.54;145613.55;1834897;77;22132;-58
2021/10/28 16:45:53;;;;;;;22.02;14.25;;;;;;;13.62;78.70;145603.47;1853421;77;22180;-58
2021/10/28 16:48:49;;;;;;;22.87;13.22;;;;;;;13.56;78.92;145588.41;1834831;77;22161;-57
2021/10/28 16:51:30;;;;;;;22.10;14.53;;;;;;;13.52;79.10;145577.08;1834087;77;22160;-56
2021/10/28 16:54:05;;;;;;;22.37;14.03;;;;;;;13.49;79.20;145570.80;1818190;77;22184;-56
2021/10/28 16:56:48;;;;;;;24.65;14.78;;;;;;;13.49;79.29;145570.80;1819625;77;22678;-58
2021/10/28 16:59:41;;;;;;;23.55;15.00;;;;;;;13.50;79.33;145573.28;1834928;77;22136;-59
2021/10/28 17:02:22;;;;;;;22.32;15.28;;;;;;;13.48;79.39;145568.25;1817045;77;22209;-60
2021/10/28 17:04:58;;;;;;;24.20;17.70;;;;;;;13.44;79.49;145558.22;1816835;77;22163;-60
2021/10/28 17:07:35;;;;;;;27.98;16.52;;;;;;;13.42;79.65;145554.44;1831193;77;22578;-58
2021/10/28 17:10:29;;;;;;;23.00;15.95;;;;;;;13.41;79.66;145551.94;1818108;77;22266;-59
2021/10/28 17:13:04;;;;;;;25.77;16.37;;;;;;;13.41;79.68;145551.94;1820033;77;22152;-65
2021/10/28 17:15:46;;;;;;;23.80;14.45;;;;;;;13.43;79.79;145555.69;1813047;77;22239;-60
2021/10/28 17:18:27;;;;;;;21.68;15.13;;;;;;;13.43;79.76;145555.69;1814808;77;22232;-59
2021/10/28 17:21:05;;;;;;;23.87;14.85;;;;;;;13.40;79.78;145548.16;1823836;77;22323;-58
2021/10/28 17:23:42;;;;;;;28.35;15.32;;;;;;;13.39;79.87;145545.66;1819595;77;22232;-57
2021/10/28 17:26:35;;;;;;;18.98;12.25;;;;;;;13.33;80.08;145530.53;1818929;77;22176;-57
2021/10/28 17:29:16;;;;;;;22.10;14.55;;;;;;;13.30;80.20;145524.25;1815726;77;22170;-58
2021/10/28 17:32:10;;;;;;;21.95;12.65;;;;;;;13.28;80.41;145517.97;1816887;77;22251;-59
2021/10/28 17:34:45;;;;;;;18.65;11.43;;;;;;;13.25;80.65;145512.94;1816743;77;22177;-56
2021/10/28 17:37:41;;;;;;;18.77;12.82;;;;;;;13.25;80.85;145512.94;1817266;77;22203;-59
2021/10/28 17:40:16;;;;;;;22.35;13.55;;;;;;;13.24;80.84;145509.14;1817430;77;22192;-61
2021/10/28 17:42:55;;;;;;;19.50;12.13;;;;;;;13.19;80.93;145497.83;1817470;77;22200;-60
2021/10/28 17:45:54;;;;;;;19.75;13.40;;;;;;;13.19;81.02;145496.58;1803037;77;28546;-62
2021/10/28 17:48:26;;;;;;;22.40;13.90;;;;;;;13.24;81.02;145510.39;1815887;77;22595;-58
2021/10/28 17:51:21;;;;;;;23.75;14.30;;;;;;;13.28;80.85;145517.97;1820958;77;22617;-59
2021/10/28 17:54:15;;;;;;;26.33;14.68;;;;;;;13.27;80.86;145515.47;1818441;77;22279;-59
2021/10/28 17:56:50;;;;;;;26.35;15.20;;;;;;;13.24;80.91;145510.39;1837251;77;22195;-59
2021/10/28 17:59:50;;;;;;;24.40;14.65;;;;;;;13.18;81.10;145495.33;1816030;77;22721;-61
2021/10/28 18:02:25;;;;;;;21.77;15.38;;;;;;;13.13;81.35;145482.75;1804545;77;28511;-57
2021/10/28 18:05:01;;;;;;;22.07;14.45;;;;;;;13.16;81.48;145489.05;1834917;77;22151;-58
2021/10/28 18:07:42;;;;;;;20.62;14.10;;;;;;;13.16;81.48;145490.28;1833997;77;22189;-62
2021/10/28 18:10:18;;;;;;;21.37;14.73;;;;;;;13.15;81.54;145487.80;1834871;77;22168;-59
2021/10/28 18:12:58;;;;;;;21.60;13.90;;;;;;;13.13;81.65;145482.75;1834027;77;22603;-58
2021/10/28 18:15:54;;;;;;;20.88;13.88;;;;;;;13.11;81.85;145477.72;1834767;77;22207;-58
2021/10/28 18:18:49;;;;;;;20.85;13.30;;;;;;;13.09;81.97;145472.69;1793061;79;22742;-58
2021/10/28 18:21:30;;;;;;;22.00;14.10;;;;;;;13.08;82.08;145470.19;1853417;77;22180;-58
2021/10/28 18:24:26;;;;;;;22.87;13.55;;;;;;;13.07;82.16;145467.66;1834923;77;22161;-55
2021/10/28 18:27:21;;;;;;;23.35;14.25;;;;;;;13.08;82.31;145468.91;1834859;77;22148;-59
2021/10/28 18:29:55;;;;;;;24.30;13.62;;;;;;;13.06;82.28;145465.16;1834822;77;22630;-59
2021/10/28 18:32:57;;;;;;;22.85;14.45;;;;;;;13.06;82.40;145463.91;1834166;77;22579;-58
2021/10/28 18:35:32;;;;;;;21.45;14.40;;;;;;;13.04;82.45;145460.13;1834897;77;22165;-60
2021/10/28 18:38:10;;;;;;;23.32;14.65;;;;;;;13.03;82.60;145458.87;1834661;77;22140;-59
2021/10/28 18:41:04;;;;;;;25.60;15.13;;;;;;;13.03;82.62;145458.87;1818718;77;28555;-60
2021/10/28 18:43:58;;;;;;;21.10;13.58;;;;;;;13.10;82.60;145475.23;1843314;77;22156;-58
2021/10/28 18:46:53;;;;;;;18.75;12.63;;;;;;;13.12;82.55;145478.97;1834838;77;22221;-58
2021/10/28 18:49:49;;;;;;;20.72;14.23;;;;;;;13.10;82.61;145475.23;1819038;77;28534;-59
2021/10/28 18:52:25;;;;;;;21.15;13.22;;;;;;;13.15;82.61;145487.80;1834807;77;22598;-57
2021/10/28 18:55:01;;;;;;;21.05;14.95;;;;;;;13.17;82.48;145492.78;1834951;77;22555;-57
2021/10/28 18:57:37;;;;;;;23.32;15.40;;;;;;;13.14;82.47;145485.25;1853416;77;22135;-60
2021/10/28 19:00:13;;;;;;;23.57;15.18;;;;;;;13.15;82.46;145486.50;1834830;77;22136;-60
2021/10/28 19:03:08;;;;;;;22.20;14.70;;;;;;;13.14;82.43;145484.00;1829287;77;22148;-61
2021/10/28 19:05:43;;;;;;;22.02;14.58;;;;;;;13.11;82.47;145476.47;1834857;77;22136;-61
2021/10/28 19:08:25;;;;;;;24.60;14.95;;;;;;;13.10;82.48;145475.23;1834060;77;22570;-58
2021/10/28 19:11:20;;;;;;;24.30;16.00;;;;;;;13.07;82.51;145467.66;1853546;77;22187;-61
2021/10/28 19:14:02;;;;;;;23.85;16.25;;;;;;;13.06;82.51;145465.16;1853798;77;22241;-57
2021/10/28 19:16:37;;;;;;;24.60;16.52;;;;;;;13.03;82.57;145457.63;1819309;77;38374;-58
2021/10/28 19:19:12;;;;;;;26.15;16.00;;;;;;;13.03;82.59;145457.63;1834801;77;22136;-60
2021/10/28 19:22:09;;;;;;;26.40;16.62;;;;;;;13.03;82.64;145457.63;1834916;77;22551;-58
2021/10/28 19:24:45;;;;;;;26.52;16.50;;;;;;;13.02;82.69;145455.08;1834885;77;22208;-58
2021/10/28 19:27:39;;;;;;;23.85;16.57;;;;;;;13.01;82.75;145452.59;1853348;77;22219;-57
2021/10/28 19:30:40;;;;;;;24.18;16.17;;;;;;;12.99;82.78;145448.80;1834040;77;22133;-58
2021/10/28 19:33:26;;;;;;;28.85;16.20;;;;;;;12.98;82.85;145445.06;1834914;77;22133;-60
2021/10/28 19:36:31;;;;;;;25.55;15.63;;;;;;;12.98;82.84;145445.06;1853410;77;22195;-59
2021/10/28 19:42:09;;;;;;;26.60;16.77;;;;;;;12.94;83.05;145434.98;1827847;77;22608;-59
2021/10/28 19:47:50;;;;;;;27.87;16.85;;;;;;;12.92;83.18;145429.95;1809800;77;22192;-60
2021/10/28 19:50:27;;;;;;;28.55;18.02;;;;;;;12.89;83.29;145422.42;1828112;77;22219;-57
2021/10/28 19:53:02;;;;;;;27.60;18.37;;;;;;;12.84;83.51;145409.86;1837705;77;28055;-61
2021/10/28 19:55:39;;;;;;;26.40;18.45;;;;;;;12.86;83.52;145416.14;1819096;77;28001;-57
2021/10/28 19:59:00;;;;;;;24.43;16.50;;;;;;;12.94;83.68;145434.98;1800675;79;22586;-57
2021/10/28 20:08:06;;;;;;;23.52;15.68;;;;;;;12.90;83.84;145424.92;1853420;77;22136;-59
2021/10/28 20:22:27;;;;;;;24.47;15.68;;;;;;;12.81;84.38;145403.58;1853448;77;22183;-63
2021/10/28 20:25:26;;;;;;;23.65;15.32;;;;;;;12.77;84.53;145394.80;1820661;77;22168;-60
2021/10/28 20:28:20;;;;;;;24.00;16.02;;;;;;;12.74;84.72;145385.98;1853312;77;22183;-57
2021/10/28 20:31:02;;;;;;;25.92;16.10;;;;;;;12.73;84.88;145384.73;1833695;77;22624;-60
2021/10/28 20:39:53;;;;;;;21.23;14.50;;;;;;;12.70;85.23;145377.20;1834845;77;22570;-57
2021/10/28 20:42:47;;;;;;;26.27;16.10;;;;;;;12.67;85.45;145368.38;1843358;77;22237;-57
2021/10/28 20:45:25;;;;;;;22.82;15.18;;;;;;;12.68;85.53;145372.17;1853492;77;20209;-64
2021/10/28 20:48:00;;;;;;;24.35;15.58;;;;;;;12.70;85.54;145377.20;1834824;77;22189;-61
2021/10/28 20:50:55;;;;;;;26.73;17.30;;;;;;;12.70;85.59;145377.20;1834756;77;22138;-58
2021/10/28 20:53:31;;;;;;;23.92;17.25;;;;;;;12.67;85.59;145369.67;1819261;77;28008;-61
2021/10/28 20:56:06;;;;;;;24.70;17.25;;;;;;;12.73;85.61;145384.73;1834848;77;22242;-60
2021/10/28 20:59:00;;;;;;;27.05;17.20;;;;;;;12.71;85.56;145379.69;1817079;77;22152;-59
2021/10/28 21:01:42;;;;;;;29.50;19.30;;;;;;;12.71;85.63;145378.45;1811050;77;22217;-58
2021/10/28 21:04:37;;;;;;;31.20;17.82;;;;;;;12.72;85.64;145380.94;1853457;77;22550;-63
2021/10/28 21:07:17;;;;;;;27.73;17.15;;;;;;;12.68;85.73;145372.17;1834079;77;22183;-57
2021/10/28 21:09:53;;;;;;;24.07;15.32;;;;;;;12.64;85.81;145360.84;1834866;77;22144;-60
2021/10/28 21:12:28;;;;;;;22.95;16.15;;;;;;;12.60;85.94;145353.33;1819321;77;28019;-62
2021/10/28 21:15:23;;;;;;;23.83;15.05;;;;;;;12.64;85.98;145362.09;1853556;77;22573;-59
2021/10/28 21:17:58;;;;;;;22.02;14.83;;;;;;;12.64;85.94;145362.09;1834828;77;22164;-61
2021/10/28 21:21:01;;;;;;;27.00;14.55;;;;;;;12.63;85.88;145359.61;1834009;77;22183;-58
2021/10/28 21:23:36;;;;;;;25.20;15.35;;;;;;;12.60;85.94;145353.33;1833414;77;22646;-59
2021/10/28 21:26:12;;;;;;;23.25;16.42;;;;;;;12.59;86.03;145349.53;1831997;77;22224;-61
2021/10/28 21:29:06;;;;;;;26.02;15.95;;;;;;;12.61;86.07;145354.56;1850924;77;22263;-60